createdAt,value
2023-03-17T00:00:50.224Z,98593.53
2023-03-17T00:03:29.732Z,98595.81
2023-03-17T00:06:00.139Z,98603.44
2023-03-17T00:08:33.374Z,98594.38
2023-03-17T00:11:01.538Z,98596.06
2023-03-17T00:13:31.089Z,98587.59
2023-03-17T00:16:07.552Z,98588.44
2023-03-17T00:18:35.572Z,98578.09
2023-03-17T00:21:02.853Z,98575.41
2023-03-17T00:23:30.619Z,98570.97
2023-03-17T00:25:58.156Z,98566.31
2023-03-17T00:28:27.950Z,98563.75
2023-03-17T00:31:00.843Z,98565.63
2023-03-17T00:33:33.129Z,98558.13
2023-03-17T00:36:01.571Z,98563.81
2023-03-17T00:38:30.398Z,98546.09
2023-03-17T00:40:58.749Z,98545.66
2023-03-17T00:43:26.279Z,98548.69
2023-03-17T00:45:54.977Z,98549.50
2023-03-17T00:48:22.519Z,98552.63
2023-03-17T00:50:51.634Z,98539.91
2023-03-17T00:53:23.841Z,98540.63
2023-03-17T00:55:51.298Z,98536.06
2023-03-17T00:58:28.694Z,98537.59
2023-03-17T01:00:58.927Z,98530.09
2023-03-17T01:03:27.928Z,98525.84
2023-03-17T01:06:00.464Z,98522.06
2023-03-17T01:08:30.226Z,98526.81
2023-03-17T01:10:59.498Z,98521.09
2023-03-17T01:13:27.579Z,98515.72
2023-03-17T01:15:59.336Z,98507.88
2023-03-17T01:18:27.182Z,98500.13
2023-03-17T01:20:54.577Z,98497.91
2023-03-17T01:23:22.136Z,98500.09
2023-03-17T01:25:50.124Z,98497.81
2023-03-17T01:28:20.858Z,98499.00
2023-03-17T01:30:49.249Z,98508.38
2023-03-17T01:33:18.132Z,98515.56
2023-03-17T01:35:48.265Z,98511.50
2023-03-17T01:38:16.806Z,98504.69
2023-03-17T01:40:51.903Z,98502.91
2023-03-17T01:43:31.278Z,98505.13
2023-03-17T01:46:47.644Z,98509.50
2023-03-17T01:49:37.514Z,98502.72
2023-03-17T01:52:20.713Z,98506.53
2023-03-17T01:55:08.922Z,98504.78
2023-03-17T01:57:50.793Z,98498.75
2023-03-17T02:00:26.246Z,98501.97
2023-03-17T02:02:57.222Z,98485.78
2023-03-17T02:05:30.978Z,98487.25
2023-03-17T02:08:01.088Z,98479.34
2023-03-17T02:10:30.639Z,98471.88
2023-03-17T02:13:03.920Z,98469.81
2023-03-17T02:15:51.185Z,98481.13
2023-03-17T02:18:22.578Z,98482.28
2023-03-17T02:20:49.622Z,98489.34
2023-03-17T02:23:22.898Z,98489.19
2023-03-17T02:25:53.091Z,98490.28
2023-03-17T02:28:28.411Z,98486.03
2023-03-17T02:30:55.598Z,98493.50
2023-03-17T02:33:23.192Z,98481.34
2023-03-17T02:35:54.177Z,98492.53
2023-03-17T02:38:21.800Z,98496.22
2023-03-17T02:40:49.165Z,98496.75
2023-03-17T02:43:16.739Z,98492.28
2023-03-17T02:45:44.129Z,98490.56
2023-03-17T02:48:13.961Z,98492.44
2023-03-17T02:50:41.422Z,98490.28
2023-03-17T02:53:09.263Z,98483.00
2023-03-17T02:55:36.760Z,98484.69
2023-03-17T02:58:04.317Z,98483.09
2023-03-17T03:00:32.046Z,98488.78
2023-03-17T03:02:59.476Z,98489.44
2023-03-17T03:05:27.069Z,98485.84
2023-03-17T03:07:55.017Z,98485.41
2023-03-17T03:10:22.193Z,98472.56
2023-03-17T03:12:50.511Z,98467.53
2023-03-17T03:15:17.917Z,98474.13
2023-03-17T03:17:45.470Z,98476.06
2023-03-17T03:20:13.305Z,98470.75
2023-03-17T03:22:41.139Z,98467.66
2023-03-17T03:25:08.711Z,98462.69
2023-03-17T03:27:36.171Z,98470.16
2023-03-17T03:30:07.441Z,98458.84
2023-03-17T03:32:34.804Z,98464.81
2023-03-17T03:35:02.025Z,98465.47
2023-03-17T03:37:29.105Z,98476.22
2023-03-17T03:39:56.263Z,98468.56
2023-03-17T03:42:23.504Z,98466.88
2023-03-17T03:44:50.670Z,98466.53
2023-03-17T03:47:18.009Z,98473.56
2023-03-17T03:49:45.596Z,98464.00
2023-03-17T03:52:12.818Z,98456.63
2023-03-17T03:54:40.058Z,98471.59
2023-03-17T03:57:07.463Z,98469.34
2023-03-17T03:59:34.715Z,98473.41
2023-03-17T04:02:01.903Z,98477.53
2023-03-17T04:04:29.642Z,98476.88
2023-03-17T04:06:56.793Z,98470.00
2023-03-17T04:09:24.072Z,98463.47
2023-03-17T04:11:51.954Z,98470.47
2023-03-17T04:14:19.490Z,98472.16
2023-03-17T04:16:46.750Z,98457.97
2023-03-17T04:19:14.085Z,98456.13
2023-03-17T04:21:42.212Z,98465.13
2023-03-17T04:24:09.771Z,98461.63
2023-03-17T04:26:37.162Z,98455.75
2023-03-17T04:29:04.562Z,98464.31
2023-03-17T04:31:32.166Z,98459.69
2023-03-17T04:34:00.624Z,98463.56
2023-03-17T04:36:28.441Z,98457.94
2023-03-17T04:38:55.717Z,98458.41
2023-03-17T04:41:22.941Z,98461.84
2023-03-17T04:43:50.253Z,98453.84
2023-03-17T04:46:17.490Z,98455.22
2023-03-17T04:48:46.879Z,98444.81
2023-03-17T04:51:14.023Z,98449.09
2023-03-17T04:53:41.389Z,98445.03
2023-03-17T04:56:08.891Z,98445.16
2023-03-17T04:58:36.638Z,98441.63
2023-03-17T05:01:08.257Z,98432.28
2023-03-17T05:03:35.994Z,98441.28
2023-03-17T05:06:05.010Z,98436.19
2023-03-17T05:08:32.242Z,98441.59
2023-03-17T05:10:59.448Z,98436.09
2023-03-17T05:13:27.386Z,98429.34
2023-03-17T05:15:56.238Z,98438.59
2023-03-17T05:18:25.973Z,98423.53
2023-03-17T05:20:53.902Z,98424.34
2023-03-17T05:23:22.327Z,98425.09
2023-03-17T05:25:49.866Z,98432.53
2023-03-17T05:28:18.247Z,98425.63
2023-03-17T05:30:46.793Z,98432.38
2023-03-17T05:33:16.329Z,98429.13
2023-03-17T05:35:43.943Z,98437.69
2023-03-17T05:38:14.288Z,98434.41
2023-03-17T05:40:42.688Z,98444.16
2023-03-17T05:43:10.381Z,98444.88
2023-03-17T05:45:37.679Z,98440.44
2023-03-17T05:48:05.212Z,98453.16
2023-03-17T05:50:32.834Z,98452.47
2023-03-17T05:53:00.951Z,98451.03
2023-03-17T05:55:28.147Z,98452.19
2023-03-17T05:57:55.489Z,98458.97
2023-03-17T06:00:23.171Z,98441.94
2023-03-17T06:02:50.452Z,98434.03
2023-03-17T06:05:18.001Z,98434.91
2023-03-17T06:07:53.890Z,98445.09
2023-03-17T06:10:24.956Z,98433.44
2023-03-17T06:12:52.748Z,98443.25
2023-03-17T06:15:21.297Z,98439.88
2023-03-17T06:17:48.631Z,98433.50
2023-03-17T06:20:18.725Z,98442.44
2023-03-17T06:23:02.319Z,98439.47
2023-03-17T06:25:31.167Z,98454.28
2023-03-17T06:27:58.523Z,98467.16
2023-03-17T06:30:25.802Z,98463.84
2023-03-17T06:32:53.056Z,98449.38
2023-03-17T06:35:20.447Z,98458.78
2023-03-17T06:37:47.898Z,98468.03
2023-03-17T06:40:16.182Z,98462.00
2023-03-17T06:42:43.615Z,98466.22
2023-03-17T06:45:12.079Z,98467.53
2023-03-17T06:47:39.750Z,98472.38
2023-03-17T06:50:10.038Z,98460.56
2023-03-17T06:52:38.974Z,98457.69
2023-03-17T06:55:08.615Z,98450.94
2023-03-17T06:57:37.332Z,98443.72
2023-03-17T07:00:07.468Z,98435.91
2023-03-17T07:02:35.001Z,98450.31
2023-03-17T07:05:03.822Z,98453.59
2023-03-17T07:07:33.864Z,98450.66
2023-03-17T07:10:02.182Z,98447.53
2023-03-17T07:12:29.361Z,98448.13
2023-03-17T07:14:58.117Z,98451.81
2023-03-17T07:17:25.581Z,98452.22
2023-03-17T07:19:52.845Z,98463.38
2023-03-17T07:22:20.473Z,98459.84
2023-03-17T07:24:49.029Z,98461.63
2023-03-17T07:27:17.030Z,98468.63
2023-03-17T07:29:44.284Z,98465.56
2023-03-17T07:32:11.860Z,98467.53
2023-03-17T07:34:39.964Z,98462.31
2023-03-17T07:37:07.873Z,98464.38
2023-03-17T07:39:35.341Z,98458.78
2023-03-17T07:42:09.965Z,98458.50
2023-03-17T07:44:39.741Z,98459.03
2023-03-17T07:47:08.448Z,98451.97
2023-03-17T07:49:41.711Z,98451.53
2023-03-17T07:52:12.614Z,98457.47
2023-03-17T07:54:43.004Z,98449.59
2023-03-17T07:57:11.915Z,98453.78
2023-03-17T07:59:40.031Z,98449.88
2023-03-17T08:02:10.805Z,98451.84
2023-03-17T08:04:38.533Z,98442.34
2023-03-17T08:07:06.300Z,98443.00
2023-03-17T08:09:33.893Z,98446.84
2023-03-17T08:12:01.567Z,98448.16
2023-03-17T08:14:29.207Z,98446.06
2023-03-17T08:16:56.643Z,98446.88
2023-03-17T08:19:24.433Z,98453.94
2023-03-17T08:21:51.650Z,98453.25
2023-03-17T08:24:20.749Z,98451.47
2023-03-17T08:26:49.540Z,98450.28
2023-03-17T08:29:16.774Z,98457.06
2023-03-17T08:31:46.525Z,98455.28
2023-03-17T08:34:14.134Z,98444.22
2023-03-17T08:36:41.421Z,98446.94
2023-03-17T08:39:10.474Z,98449.19
2023-03-17T08:41:38.558Z,98451.19
2023-03-17T08:44:08.276Z,98446.19
2023-03-17T08:46:36.699Z,98442.31
2023-03-17T08:49:04.495Z,98445.41
2023-03-17T08:51:36.834Z,98440.16
2023-03-17T08:54:06.736Z,98432.13
2023-03-17T08:56:35.040Z,98433.53
2023-03-17T08:59:02.698Z,98439.94
2023-03-17T09:01:30.164Z,98435.34
2023-03-17T09:03:57.569Z,98434.28
2023-03-17T09:06:25.546Z,98432.00
2023-03-17T09:08:57.815Z,98429.22
2023-03-17T09:11:29.958Z,98427.47
2023-03-17T09:13:57.420Z,98440.00
2023-03-17T09:16:25.697Z,98422.00
2023-03-17T09:18:53.652Z,98418.53
2023-03-17T09:21:21.388Z,98423.69
2023-03-17T09:23:48.687Z,98414.59
2023-03-17T09:26:16.048Z,98406.31
2023-03-17T09:28:43.661Z,98412.75
2023-03-17T09:31:13.093Z,98406.19
2023-03-17T09:33:41.674Z,98408.59
2023-03-17T09:36:11.060Z,98400.25
2023-03-17T09:38:39.273Z,98407.47
2023-03-17T09:41:23.869Z,98411.13
2023-03-17T09:44:19.850Z,98417.97
2023-03-17T09:47:13.901Z,98401.19
2023-03-17T09:49:55.267Z,98414.28
2023-03-17T09:52:32.659Z,98414.53
2023-03-17T09:55:03.567Z,98415.88
2023-03-17T09:57:40.718Z,98409.06
2023-03-17T10:00:23.076Z,98409.84
2023-03-17T10:02:50.488Z,98402.38
2023-03-17T10:05:26.066Z,98401.00
2023-03-17T10:08:29.037Z,98386.16
2023-03-17T10:11:51.304Z,98391.47
2023-03-17T10:14:57.362Z,98389.75
2023-03-17T10:17:39.765Z,98387.34
2023-03-17T10:20:18.920Z,98392.38
2023-03-17T10:22:58.046Z,98383.47
2023-03-17T10:25:36.657Z,98369.75
2023-03-17T10:28:35.833Z,98364.38
2023-03-17T10:31:29.270Z,98366.88
2023-03-17T10:34:12.189Z,98364.41
2023-03-17T10:36:46.953Z,98359.84
2023-03-17T10:39:23.827Z,98356.00
2023-03-17T10:42:03.340Z,98352.66
2023-03-17T10:44:56.294Z,98353.13
2023-03-17T10:47:47.949Z,98363.28
2023-03-17T10:50:33.916Z,98345.88
2023-03-17T10:53:04.364Z,98340.78
2023-03-17T10:55:49.836Z,98347.72
2023-03-17T10:58:47.658Z,98350.03
2023-03-17T11:01:47.494Z,98343.00
2023-03-17T11:04:43.474Z,98348.44
2023-03-17T11:07:35.606Z,98347.19
2023-03-17T11:10:27.383Z,98336.09
2023-03-17T11:13:02.784Z,98333.22
2023-03-17T11:15:44.542Z,98334.50
2023-03-17T11:18:32.853Z,98315.00
2023-03-17T11:21:09.221Z,98318.59
2023-03-17T11:23:42.466Z,98313.00
2023-03-17T11:26:36.378Z,98305.66
2023-03-17T11:29:31.283Z,98293.72
2023-03-17T11:32:13.553Z,98288.03
2023-03-17T11:35:01.484Z,98302.84
2023-03-17T11:38:14.332Z,98297.09
2023-03-17T11:41:31.400Z,98283.13
2023-03-17T11:45:09.556Z,98286.81
2023-03-17T11:48:28.158Z,98281.47
2023-03-17T11:51:22.951Z,98268.41
2023-03-17T11:54:09.707Z,98273.03
2023-03-17T11:56:57.662Z,98266.88
2023-03-17T11:59:52.021Z,98265.53
2023-03-17T12:02:28.764Z,98267.47
2023-03-17T12:05:09.824Z,98257.72
2023-03-17T12:07:38.905Z,98253.28
2023-03-17T12:10:36.405Z,98247.34
2023-03-17T12:13:30.114Z,98248.31
2023-03-17T12:16:17.510Z,98241.50
2023-03-17T12:19:22.070Z,98242.28
2023-03-17T12:21:54.348Z,98247.03
2023-03-17T12:24:31.635Z,98233.03
2023-03-17T12:27:40.039Z,98219.03
2023-03-17T12:30:18.847Z,98227.69
2023-03-17T12:32:58.445Z,98220.69
2023-03-17T12:35:38.893Z,98222.25
2023-03-17T12:38:40.459Z,98224.69
2023-03-17T12:41:56.968Z,98223.06
2023-03-17T12:44:58.613Z,98215.34
2023-03-17T12:47:57.947Z,98207.53
2023-03-17T12:51:22.711Z,98208.72
2023-03-17T12:53:51.862Z,98212.25
2023-03-17T12:56:34.730Z,98203.31
2023-03-17T12:59:09.877Z,98201.69
2023-03-17T13:01:54.507Z,98204.75
2023-03-17T13:04:37.974Z,98197.75
2023-03-17T13:07:37.927Z,98202.28
2023-03-17T13:10:48.559Z,98185.03
2023-03-17T13:13:41.597Z,98175.28
2023-03-17T13:16:34.010Z,98179.66
2023-03-17T13:19:26.792Z,98168.91
2023-03-17T13:22:03.366Z,98165.63
2023-03-17T13:24:53.314Z,98166.88
2023-03-17T13:27:32.809Z,98164.75
2023-03-17T13:30:25.146Z,98155.59
2023-03-17T13:33:04.223Z,98145.69
2023-03-17T13:35:46.321Z,98145.78
2023-03-17T13:38:34.894Z,98152.63
2023-03-17T13:41:38.564Z,98131.66
2023-03-17T13:44:58.191Z,98133.13
2023-03-17T13:47:42.398Z,98130.16
2023-03-17T13:50:22.696Z,98127.72
2023-03-17T13:53:13.541Z,98126.34
2023-03-17T13:56:23.390Z,98130.47
2023-03-17T13:59:02.843Z,98132.91
2023-03-17T14:01:58.717Z,98121.88
2023-03-17T14:04:52.828Z,98128.81
2023-03-17T14:07:27.464Z,98116.53
2023-03-17T14:10:04.925Z,98114.03
2023-03-17T14:13:12.599Z,98111.28
2023-03-17T14:16:04.974Z,98106.41
2023-03-17T14:19:08.891Z,98098.53
2023-03-17T14:21:36.541Z,98103.41
2023-03-17T14:24:32.149Z,98100.69
2023-03-17T14:27:09.153Z,98091.38
2023-03-17T14:29:38.152Z,98093.84
2023-03-17T14:32:16.944Z,98086.22
2023-03-17T14:34:48.820Z,98086.09
2023-03-17T14:37:16.548Z,98084.16
2023-03-17T14:39:57.791Z,98087.28
2023-03-17T14:42:31.792Z,98078.06
2023-03-17T14:45:08.498Z,98070.72
2023-03-17T14:47:45.230Z,98076.81
2023-03-17T14:50:33.400Z,98074.22
2023-03-17T14:53:01.968Z,98076.44
2023-03-17T14:55:43.073Z,98077.28
2023-03-17T14:58:47.772Z,98074.34
2023-03-17T15:01:35.312Z,98065.38
2023-03-17T15:04:30.516Z,98063.09
2023-03-17T15:07:07.665Z,98069.75
2023-03-17T15:09:41.701Z,98062.53
2023-03-17T15:12:30.981Z,98064.66
2023-03-17T15:15:06.459Z,98064.16
2023-03-17T15:17:37.191Z,98060.88
2023-03-17T15:20:18.055Z,98057.81
2023-03-17T15:23:03.469Z,98057.16
2023-03-17T15:25:55.778Z,98057.28
2023-03-17T15:28:49.459Z,98054.53
2023-03-17T15:31:32.281Z,98058.41
2023-03-17T15:34:02.203Z,98059.91
2023-03-17T15:36:33.078Z,98061.06
2023-03-17T15:39:03.485Z,98065.34
2023-03-17T15:41:31.257Z,98068.31
2023-03-17T15:43:58.694Z,98060.28
2023-03-17T15:46:31.535Z,98055.72
2023-03-17T15:49:00.352Z,98059.84
2023-03-17T15:51:27.997Z,98053.50
2023-03-17T15:53:55.392Z,98051.50
2023-03-17T15:56:22.963Z,98047.84
2023-03-17T15:58:54.951Z,98057.66
2023-03-17T16:01:27.632Z,98044.06
2023-03-17T16:03:55.684Z,98052.97
2023-03-17T16:06:24.512Z,98042.34
2023-03-17T16:08:51.995Z,98050.78
2023-03-17T16:11:28.305Z,98050.84
2023-03-17T16:13:59.703Z,98051.28
2023-03-17T16:16:43.645Z,98047.63
2023-03-17T16:19:21.642Z,98050.66
2023-03-17T16:21:49.543Z,98046.53
2023-03-17T16:24:24.429Z,98040.59
2023-03-17T16:26:53.054Z,98032.38
2023-03-17T16:29:21.848Z,98042.06
2023-03-17T16:31:51.575Z,98040.72
2023-03-17T16:34:24.689Z,98033.56
2023-03-17T16:36:52.007Z,98034.13
2023-03-17T16:39:24.595Z,98036.97
2023-03-17T16:41:53.531Z,98034.38
2023-03-17T16:44:22.179Z,98047.44
2023-03-17T16:46:49.676Z,98032.50
2023-03-17T16:49:22.526Z,98045.84
2023-03-17T16:51:50.738Z,98048.19
2023-03-17T16:54:18.106Z,98047.94
2023-03-17T16:56:45.719Z,98053.53
2023-03-17T16:59:21.737Z,98059.84
2023-03-17T17:01:49.372Z,98058.31
2023-03-17T17:04:16.648Z,98061.41
2023-03-17T17:06:44.079Z,98068.34
2023-03-17T17:09:11.318Z,98066.00
2023-03-17T17:11:38.728Z,98062.25
2023-03-17T17:14:06.062Z,98064.41
2023-03-17T17:16:42.074Z,98067.88
2023-03-17T17:19:17.593Z,98064.81
2023-03-17T17:21:45.771Z,98067.53
2023-03-17T17:24:14.655Z,98073.03
2023-03-17T17:26:42.117Z,98077.00
2023-03-17T17:29:09.490Z,98085.59
2023-03-17T17:31:36.842Z,98095.66
2023-03-17T17:34:04.415Z,98091.53
2023-03-17T17:36:31.853Z,98089.91
2023-03-17T17:38:59.201Z,98095.06
2023-03-17T17:41:26.621Z,98104.38
2023-03-17T17:43:54.686Z,98114.97
2023-03-17T17:46:23.428Z,98116.03
2023-03-17T17:48:50.752Z,98115.94
2023-03-17T17:51:18.219Z,98122.50
2023-03-17T17:53:45.656Z,98127.53
2023-03-17T17:56:18.221Z,98131.34
2023-03-17T17:58:46.543Z,98143.47
2023-03-17T18:01:19.657Z,98155.63
2023-03-17T18:03:47.441Z,98149.91
2023-03-17T18:06:15.746Z,98156.25
2023-03-17T18:08:43.539Z,98151.13
2023-03-17T18:11:11.079Z,98148.13
2023-03-17T18:13:39.083Z,98147.06
2023-03-17T18:16:12.239Z,98155.75
2023-03-17T18:18:42.733Z,98160.13
2023-03-17T18:21:10.327Z,98160.06
2023-03-17T18:23:38.991Z,98155.84
2023-03-17T18:26:14.833Z,98161.66
2023-03-17T18:28:50.309Z,98167.34
2023-03-17T18:31:37.142Z,98163.41
2023-03-17T18:34:14.555Z,98173.09
2023-03-17T18:36:42.070Z,98180.34
2023-03-17T18:39:09.403Z,98173.47
2023-03-17T18:41:37.386Z,98172.63
2023-03-17T18:44:04.905Z,98181.81
2023-03-17T18:46:33.006Z,98177.22
2023-03-17T18:49:00.372Z,98185.66
2023-03-17T18:51:27.698Z,98186.84
2023-03-17T18:53:56.385Z,98184.13
2023-03-17T18:56:26.552Z,98192.91
2023-03-17T18:58:54.561Z,98192.69
2023-03-17T19:01:22.831Z,98191.94
2023-03-17T19:03:50.870Z,98198.00
2023-03-17T19:06:24.152Z,98195.03
2023-03-17T19:08:51.803Z,98204.75
2023-03-17T19:11:26.829Z,98208.53
2023-03-17T19:13:54.393Z,98197.91
2023-03-17T19:16:21.730Z,98204.78
2023-03-17T19:18:49.196Z,98208.94
2023-03-17T19:21:16.648Z,98212.59
2023-03-17T19:23:44.915Z,98206.75
2023-03-17T19:26:12.213Z,98204.06
2023-03-17T19:28:39.841Z,98206.69
2023-03-17T19:31:07.622Z,98207.81
2023-03-17T19:33:35.470Z,98219.88
2023-03-17T19:36:12.860Z,98220.34
2023-03-17T19:38:41.122Z,98222.59
2023-03-17T19:41:08.904Z,98226.50
2023-03-17T19:43:41.248Z,98218.25
2023-03-17T19:46:12.435Z,98223.22
2023-03-17T19:48:40.692Z,98223.28
2023-03-17T19:51:09.331Z,98226.41
2023-03-17T19:53:37.427Z,98230.56
2023-03-17T19:56:05.341Z,98226.31
2023-03-17T19:58:32.680Z,98227.00
2023-03-17T20:00:59.997Z,98219.59
2023-03-17T20:03:28.395Z,98221.84
2023-03-17T20:05:55.952Z,98227.56
2023-03-17T20:08:24.667Z,98233.13
2023-03-17T20:10:54.089Z,98226.19
2023-03-17T20:13:22.551Z,98223.19
2023-03-17T20:15:51.617Z,98228.31
2023-03-17T20:18:20.206Z,98235.19
2023-03-17T20:20:57.337Z,98234.16
2023-03-17T20:23:26.098Z,98241.50
2023-03-17T20:25:53.996Z,98249.38
2023-03-17T20:28:22.199Z,98244.78
2023-03-17T20:30:50.254Z,98239.56
2023-03-17T20:33:17.995Z,98245.16
2023-03-17T20:35:47.390Z,98247.03
2023-03-17T20:38:15.764Z,98256.47
2023-03-17T20:40:43.608Z,98255.81
2023-03-17T20:43:11.195Z,98264.75
2023-03-17T20:45:38.738Z,98267.63
2023-03-17T20:48:09.226Z,98267.75
2023-03-17T20:50:38.608Z,98265.00
2023-03-17T20:53:07.366Z,98261.94
2023-03-17T20:55:36.418Z,98267.41
2023-03-17T20:58:04.054Z,98271.25
2023-03-17T21:00:32.819Z,98271.88
2023-03-17T21:03:00.465Z,98271.28
2023-03-17T21:05:28.726Z,98270.56
2023-03-17T21:07:56.650Z,98267.22
2023-03-17T21:10:24.424Z,98276.56
2023-03-17T21:12:51.636Z,98267.41
2023-03-17T21:15:22.838Z,98268.06
2023-03-17T21:17:50.271Z,98272.78
2023-03-17T21:20:17.655Z,98272.56
2023-03-17T21:22:46.034Z,98274.50
2023-03-17T21:25:14.878Z,98267.22
2023-03-17T21:27:42.712Z,98273.06
2023-03-17T21:30:14.362Z,98278.16
2023-03-17T21:32:42.202Z,98267.34
2023-03-17T21:35:11.253Z,98269.59
2023-03-17T21:37:38.510Z,98281.28
2023-03-17T21:40:06.922Z,98266.88
2023-03-17T21:42:35.101Z,98265.72
2023-03-17T21:45:02.605Z,98274.09
2023-03-17T21:47:30.178Z,98267.13
2023-03-17T21:50:01.541Z,98266.00
2023-03-17T21:52:28.810Z,98260.13
2023-03-17T21:54:56.056Z,98262.63
2023-03-17T21:57:25.632Z,98276.00
2023-03-17T21:59:52.909Z,98282.44
2023-03-17T22:02:21.072Z,98279.22
2023-03-17T22:04:49.598Z,98284.56
2023-03-17T22:07:17.990Z,98291.25
2023-03-17T22:09:45.588Z,98286.47
2023-03-17T22:12:14.006Z,98296.00
2023-03-17T22:14:43.426Z,98296.53
2023-03-17T22:17:17.989Z,98297.66
2023-03-17T22:19:53.046Z,98302.41
2023-03-17T22:22:22.036Z,98298.81
2023-03-17T22:24:50.600Z,98296.00
2023-03-17T22:27:19.028Z,98301.59
2023-03-17T22:29:46.593Z,98301.00
2023-03-17T22:32:14.520Z,98303.50
2023-03-17T22:34:42.588Z,98310.78
2023-03-17T22:37:09.908Z,98313.84
2023-03-17T22:39:37.149Z,98319.44
2023-03-17T22:42:04.796Z,98319.72
2023-03-17T22:47:54.304Z,98328.34
2023-03-17T22:50:23.133Z,98330.00
2023-03-17T22:52:51.604Z,98327.22
2023-03-17T22:55:19.016Z,98330.84
2023-03-17T22:57:46.758Z,98333.94
2023-03-17T23:00:17.628Z,98334.47
2023-03-17T23:02:49.028Z,98341.44
2023-03-17T23:05:16.730Z,98339.22
2023-03-17T23:07:51.877Z,98337.81
2023-03-17T23:10:23.520Z,98341.69
2023-03-17T23:12:52.389Z,98331.06
2023-03-17T23:15:21.028Z,98335.53
2023-03-17T23:17:48.742Z,98337.84
2023-03-17T23:20:17.538Z,98350.06
2023-03-17T23:22:44.918Z,98346.78
2023-03-17T23:25:13.640Z,98345.16
2023-03-17T23:27:41.351Z,98356.06
2023-03-17T23:30:11.854Z,98358.75
2023-03-17T23:32:41.776Z,98361.09
2023-03-17T23:35:13.475Z,98357.50
2023-03-17T23:37:41.457Z,98368.44
2023-03-17T23:40:11.578Z,98359.38
2023-03-17T23:42:38.785Z,98360.75
2023-03-17T23:45:07.078Z,98355.28
2023-03-17T23:47:34.364Z,98357.56
2023-03-17T23:50:02.170Z,98360.38
2023-03-17T23:52:30.623Z,98369.47
2023-03-17T23:54:58.250Z,98376.94
2023-03-17T23:57:26.012Z,98373.47
2023-03-17T23:59:53.539Z,98369.91
